createdAt,value
2023-03-14T00:02:16.498Z,100303.56
2023-03-14T00:04:43.788Z,100291.03
2023-03-14T00:07:12.821Z,100303.91
2023-03-14T00:09:40.159Z,100293.56
2023-03-14T00:12:08.482Z,100286.31
2023-03-14T00:14:35.788Z,100288.47
2023-03-14T00:17:03.198Z,100294.94
2023-03-14T00:19:30.486Z,100288.81
2023-03-14T00:21:57.866Z,100289.72
2023-03-14T00:24:25.207Z,100292.09
2023-03-14T00:26:52.513Z,100278.34
2023-03-14T00:29:19.859Z,100266.75
2023-03-14T00:31:47.164Z,100271.16
2023-03-14T00:34:14.431Z,100262.97
2023-03-14T00:36:41.813Z,100255.28
2023-03-14T00:39:09.120Z,100249.41
2023-03-14T00:41:36.439Z,100242.38
2023-03-14T00:44:03.794Z,100227.38
2023-03-14T00:46:31.210Z,100213.63
2023-03-14T00:48:58.546Z,100192.03
2023-03-14T00:51:25.902Z,100188.28
2023-03-14T00:53:53.182Z,100177.00
2023-03-14T00:56:20.530Z,100170.06
2023-03-14T00:58:47.781Z,100179.59
2023-03-14T01:01:17.968Z,100177.53
2023-03-14T01:03:47.331Z,100173.47
2023-03-14T01:06:19.255Z,100157.47
2023-03-14T01:08:47.837Z,100149.81
2023-03-14T01:11:21.630Z,100144.19
2023-03-14T01:13:49.420Z,100164.81
2023-03-14T01:16:18.816Z,100160.56
2023-03-14T01:18:47.444Z,100149.72
2023-03-14T01:21:21.270Z,100152.25
2023-03-14T01:23:50.267Z,100142.09
2023-03-14T01:26:20.100Z,100143.03
2023-03-14T01:28:48.744Z,100122.91
2023-03-14T01:31:17.612Z,100120.84
2023-03-14T01:33:45.811Z,100125.00
2023-03-14T01:36:13.722Z,100109.13
2023-03-14T01:38:42.964Z,100113.69
2023-03-14T01:41:19.174Z,100110.88
2023-03-14T01:43:46.987Z,100094.16
2023-03-14T01:46:35.186Z,100086.66
2023-03-14T01:49:05.660Z,100093.44
2023-03-14T01:51:59.847Z,100076.69
2023-03-14T01:54:42.543Z,100058.44
2023-03-14T01:57:17.020Z,100067.50
2023-03-14T01:59:49.579Z,100062.09
2023-03-14T02:02:17.537Z,100052.22
2023-03-14T02:04:46.085Z,100034.28
2023-03-14T02:07:38.720Z,100027.94
2023-03-14T02:10:13.139Z,100031.19
2023-03-14T02:12:40.883Z,100029.63
2023-03-14T02:15:16.058Z,100013.97
2023-03-14T02:17:54.380Z,99996.00
2023-03-14T02:21:06.728Z,100008.59
2023-03-14T02:23:46.308Z,100009.59
2023-03-14T02:26:37.967Z,100022.44
2023-03-14T02:29:05.482Z,100013.53
2023-03-14T02:31:34.136Z,99992.34
2023-03-14T02:34:02.704Z,99983.72
2023-03-14T02:36:31.095Z,99993.13
2023-03-14T02:39:25.537Z,99986.19
2023-03-14T02:41:52.888Z,99982.66
2023-03-14T02:44:20.691Z,99982.31
2023-03-14T02:46:49.184Z,99989.00
2023-03-14T02:49:17.679Z,99989.88
2023-03-14T02:51:46.098Z,99967.97
2023-03-14T02:54:15.590Z,99976.75
2023-03-14T02:56:43.172Z,99988.19
2023-03-14T02:59:13.742Z,99979.31
2023-03-14T03:01:54.197Z,99962.41
2023-03-14T03:04:21.511Z,99980.38
2023-03-14T03:06:48.787Z,99984.66
2023-03-14T03:09:16.818Z,99959.47
2023-03-14T03:11:44.109Z,99948.13
2023-03-14T03:14:16.968Z,99949.72
2023-03-14T03:16:44.529Z,99958.53
2023-03-14T03:19:12.034Z,99953.84
2023-03-14T03:21:39.294Z,99960.72
2023-03-14T03:24:07.864Z,99956.75
2023-03-14T03:26:36.580Z,99926.84
2023-03-14T03:29:06.278Z,99924.00
2023-03-14T03:31:33.601Z,99913.38
2023-03-14T03:34:01.032Z,99886.16
2023-03-14T03:36:29.078Z,99866.28
2023-03-14T03:38:56.555Z,99845.75
2023-03-14T03:41:25.454Z,99844.53
2023-03-14T03:43:55.097Z,99845.59
2023-03-14T03:46:22.716Z,99855.09
2023-03-14T03:48:59.003Z,99858.16
2023-03-14T03:51:28.324Z,99828.69
2023-03-14T03:53:57.292Z,99843.91
2023-03-14T03:56:29.909Z,99846.88
2023-03-14T03:58:57.209Z,99841.88
2023-03-14T04:01:25.285Z,99854.28
2023-03-14T04:03:55.912Z,99841.25
2023-03-14T04:06:23.464Z,99817.91
2023-03-14T04:08:55.235Z,99828.31
2023-03-14T04:11:37.823Z,99833.22
2023-03-14T04:14:28.143Z,99838.34
2023-03-14T04:17:03.350Z,99826.88
2023-03-14T04:19:31.375Z,99812.34
2023-03-14T04:21:58.745Z,99795.81
2023-03-14T04:24:30.481Z,99798.28
2023-03-14T04:26:58.556Z,99777.97
2023-03-14T04:29:26.809Z,99751.31
2023-03-14T04:31:54.065Z,99767.25
2023-03-14T04:34:21.403Z,99788.25
2023-03-14T04:36:52.772Z,99779.28
2023-03-14T04:39:26.210Z,99763.59
2023-03-14T04:42:06.846Z,99776.59
2023-03-14T04:44:34.624Z,99781.97
2023-03-14T04:47:02.395Z,99762.59
2023-03-14T04:49:29.960Z,99760.38
2023-03-14T04:51:57.342Z,99742.00
2023-03-14T04:54:26.827Z,99751.75
2023-03-14T04:56:57.568Z,99738.03
2023-03-14T04:59:26.165Z,99728.09
2023-03-14T05:01:57.208Z,99708.16
2023-03-14T05:04:44.830Z,99708.44
2023-03-14T05:07:34.857Z,99704.41
2023-03-14T05:10:17.898Z,99715.34
2023-03-14T05:13:02.343Z,99703.72
2023-03-14T05:15:52.817Z,99702.78
2023-03-14T05:18:42.482Z,99676.28
2023-03-14T05:21:15.152Z,99687.94
2023-03-14T05:23:42.471Z,99689.41
2023-03-14T05:26:28.451Z,99685.63
2023-03-14T05:29:14.235Z,99675.19
2023-03-14T05:31:59.841Z,99666.88
2023-03-14T05:34:39.117Z,99657.53
2023-03-14T05:37:27.891Z,99670.47
2023-03-14T05:40:15.232Z,99646.75
2023-03-14T05:43:09.100Z,99650.59
2023-03-14T05:45:49.551Z,99658.97
2023-03-14T05:48:35.469Z,99702.56
2023-03-14T05:51:29.116Z,99712.31
2023-03-14T05:54:06.993Z,99719.34
2023-03-14T05:57:03.280Z,99760.47
2023-03-14T05:59:40.221Z,99763.84
2023-03-14T06:02:36.838Z,99776.91
2023-03-14T06:05:14.040Z,99778.81
2023-03-14T06:07:41.851Z,99808.91
2023-03-14T06:10:09.950Z,99798.66
2023-03-14T06:12:38.257Z,99794.84
2023-03-14T06:15:06.476Z,99800.00
2023-03-14T06:17:35.280Z,99801.31
2023-03-14T06:20:08.390Z,99785.94
2023-03-14T06:22:35.918Z,99763.72
2023-03-14T06:25:04.712Z,99745.31
2023-03-14T06:27:32.097Z,99746.09
2023-03-14T06:29:59.587Z,99743.81
2023-03-14T06:32:27.683Z,99743.03
2023-03-14T06:35:01.872Z,99745.69
2023-03-14T06:37:30.567Z,99745.75
2023-03-14T06:39:58.240Z,99755.44
2023-03-14T06:42:45.126Z,99745.31
2023-03-14T06:45:14.741Z,99760.94
2023-03-14T06:47:42.400Z,99756.75
2023-03-14T06:50:11.130Z,99764.97
2023-03-14T06:52:42.280Z,99759.47
2023-03-14T06:55:10.163Z,99749.78
2023-03-14T06:57:38.292Z,99745.63
2023-03-14T07:00:07.592Z,99741.88
2023-03-14T07:02:42.749Z,99735.00
2023-03-14T07:05:23.174Z,99740.81
2023-03-14T07:07:50.526Z,99732.84
2023-03-14T07:10:18.788Z,99724.75
2023-03-14T07:12:46.234Z,99711.72
2023-03-14T07:15:18.731Z,99710.59
2023-03-14T07:17:49.600Z,99715.19
2023-03-14T07:20:18.861Z,99692.28
2023-03-14T07:22:50.084Z,99681.94
2023-03-14T07:25:20.390Z,99699.78
2023-03-14T07:27:48.994Z,99696.16
2023-03-14T07:30:16.836Z,99696.69
2023-03-14T07:32:44.410Z,99695.22
2023-03-14T07:35:12.087Z,99704.81
2023-03-14T07:37:41.584Z,99710.50
2023-03-14T07:40:11.649Z,99706.91
2023-03-14T07:42:39.071Z,99708.47
2023-03-14T07:45:15.633Z,99701.34
2023-03-14T07:47:42.973Z,99707.25
2023-03-14T07:50:10.960Z,99717.19
2023-03-14T07:52:38.335Z,99704.41
2023-03-14T07:55:06.640Z,99711.03
2023-03-14T07:57:33.943Z,99708.66
2023-03-14T08:00:01.284Z,99699.59
2023-03-14T08:02:28.637Z,99694.66
2023-03-14T08:04:55.990Z,99699.41
2023-03-14T08:07:25.663Z,99691.34
2023-03-14T08:09:54.028Z,99680.34
2023-03-14T08:12:21.639Z,99687.81
2023-03-14T08:14:48.926Z,99695.53
2023-03-14T08:17:16.324Z,99688.28
2023-03-14T08:19:43.806Z,99695.44
2023-03-14T08:22:11.149Z,99696.19
2023-03-14T08:24:38.427Z,99696.09
2023-03-14T08:27:07.358Z,99694.41
2023-03-14T08:29:35.309Z,99701.69
2023-03-14T08:32:02.759Z,99703.28
2023-03-14T08:34:30.069Z,99688.50
2023-03-14T08:36:57.809Z,99698.81
2023-03-14T08:39:25.256Z,99696.00
2023-03-14T08:41:52.706Z,99688.69
2023-03-14T08:44:20.880Z,99690.28
2023-03-14T08:46:48.392Z,99686.22
2023-03-14T08:49:15.996Z,99690.38
2023-03-14T08:51:43.444Z,99687.88
2023-03-14T08:54:11.925Z,99688.84
2023-03-14T08:56:39.218Z,99698.34
2023-03-14T08:59:06.739Z,99691.28
2023-03-14T09:01:34.156Z,99681.94
2023-03-14T09:04:01.534Z,99688.69
2023-03-14T09:06:33.904Z,99690.28
2023-03-14T09:09:01.188Z,99685.38
2023-03-14T09:11:28.750Z,99694.16
2023-03-14T09:13:56.050Z,99702.81
2023-03-14T09:16:23.536Z,99700.41
2023-03-14T09:18:51.223Z,99700.16
2023-03-14T09:21:18.625Z,99701.78
2023-03-14T09:23:46.945Z,99708.91
2023-03-14T09:26:14.306Z,99713.66
2023-03-14T09:28:41.567Z,99705.66
2023-03-14T09:31:10.710Z,99708.66
2023-03-14T09:33:39.323Z,99717.13
2023-03-14T09:36:08.187Z,99716.56
2023-03-14T09:38:35.631Z,99717.81
2023-03-14T09:41:13.101Z,99714.78
2023-03-14T09:43:43.328Z,99713.31
2023-03-14T09:46:12.523Z,99718.00
2023-03-14T09:48:40.552Z,99715.09
2023-03-14T09:51:18.181Z,99715.69
2023-03-14T09:53:48.138Z,99719.75
2023-03-14T09:56:25.864Z,99719.63
2023-03-14T09:59:00.518Z,99706.19
2023-03-14T10:01:32.702Z,99709.28
2023-03-14T10:04:08.246Z,99715.50
2023-03-14T10:06:36.140Z,99714.81
2023-03-14T10:09:04.408Z,99713.75
2023-03-14T10:11:31.688Z,99713.31
2023-03-14T10:14:01.823Z,99735.22
2023-03-14T10:16:31.435Z,99729.06
2023-03-14T10:19:17.611Z,99725.72
2023-03-14T10:21:51.643Z,99717.63
2023-03-14T10:24:28.405Z,99709.63
2023-03-14T10:27:02.418Z,99702.50
2023-03-14T10:29:32.124Z,99703.28
2023-03-14T10:32:05.876Z,99700.66
2023-03-14T10:34:35.831Z,99700.56
2023-03-14T10:37:22.224Z,99697.66
2023-03-14T10:39:55.061Z,99696.88
2023-03-14T10:42:31.078Z,99693.09
2023-03-14T10:45:06.561Z,99665.25
2023-03-14T10:47:34.661Z,99664.00
2023-03-14T10:50:32.071Z,99652.59
2023-03-14T10:53:06.448Z,99657.94
2023-03-14T10:55:46.012Z,99660.13
2023-03-14T10:58:24.125Z,99655.47
2023-03-14T11:01:01.288Z,99646.66
2023-03-14T11:03:32.730Z,99645.34
2023-03-14T11:06:13.210Z,99645.06
2023-03-14T11:08:54.663Z,99647.91
2023-03-14T11:11:29.504Z,99658.56
2023-03-14T11:14:02.031Z,99664.53
2023-03-14T11:17:10.387Z,99675.56
2023-03-14T11:19:40.728Z,99663.97
2023-03-14T11:22:29.596Z,99659.13
2023-03-14T11:25:12.656Z,99654.03
2023-03-14T11:27:57.023Z,99646.38
2023-03-14T11:30:43.176Z,99625.22
2023-03-14T11:33:16.765Z,99625.63
2023-03-14T11:35:48.136Z,99623.41
2023-03-14T11:38:34.022Z,99632.38
2023-03-14T11:41:01.589Z,99617.19
2023-03-14T11:43:30.558Z,99626.13
2023-03-14T11:46:05.414Z,99621.59
2023-03-14T11:48:40.840Z,99613.84
2023-03-14T11:51:23.140Z,99609.25
2023-03-14T11:54:18.902Z,99620.28
2023-03-14T11:57:00.677Z,99623.28
2023-03-14T11:59:46.742Z,99616.81
2023-03-14T12:02:45.066Z,99607.25
2023-03-14T12:05:31.194Z,99591.94
2023-03-14T12:08:19.409Z,99593.47
2023-03-14T12:10:51.399Z,99574.41
2023-03-14T12:13:19.482Z,99580.72
2023-03-14T12:16:02.322Z,99578.91
2023-03-14T12:18:33.113Z,99577.69
2023-03-14T12:21:06.636Z,99591.03
2023-03-14T12:23:54.731Z,99596.47
2023-03-14T12:26:24.987Z,99585.38
2023-03-14T12:29:10.500Z,99566.72
2023-03-14T12:31:42.861Z,99559.94
2023-03-14T12:34:10.169Z,99551.63
2023-03-14T12:36:52.611Z,99541.91
2023-03-14T12:39:32.915Z,99539.28
2023-03-14T12:42:03.810Z,99537.94
2023-03-14T12:44:31.109Z,99546.34
2023-03-14T12:47:00.044Z,99544.19
2023-03-14T12:49:36.705Z,99530.69
2023-03-14T12:52:14.373Z,99535.16
2023-03-14T12:55:10.448Z,99531.19
2023-03-14T12:57:46.276Z,99531.63
2023-03-14T13:00:30.637Z,99518.38
2023-03-14T13:03:14.032Z,99511.59
2023-03-14T13:06:00.480Z,99520.03
2023-03-14T13:08:57.504Z,99517.03
2023-03-14T13:11:26.043Z,99519.75
2023-03-14T13:13:58.228Z,99517.25
2023-03-14T13:16:25.881Z,99527.53
2023-03-14T13:19:12.412Z,99528.94
2023-03-14T13:21:39.921Z,99527.38
2023-03-14T13:24:21.499Z,99520.53
2023-03-14T13:26:49.946Z,99519.75
2023-03-14T13:29:18.464Z,99509.31
2023-03-14T13:31:52.261Z,99499.44
2023-03-14T13:34:20.005Z,99494.59
2023-03-14T13:36:50.970Z,99495.91
2023-03-14T13:39:25.732Z,99499.06
2023-03-14T13:41:54.512Z,99502.66
2023-03-14T13:44:26.751Z,99495.25
2023-03-14T13:46:59.677Z,99490.19
2023-03-14T13:49:29.882Z,99490.91
2023-03-14T13:51:57.199Z,99486.81
2023-03-14T13:54:27.288Z,99482.41
2023-03-14T13:57:04.743Z,99494.19
2023-03-14T13:59:36.438Z,99489.66
2023-03-14T14:02:18.231Z,99485.97
2023-03-14T14:04:48.774Z,99485.44
2023-03-14T14:07:21.076Z,99486.63
2023-03-14T14:09:51.268Z,99464.72
2023-03-14T14:12:29.078Z,99471.28
2023-03-14T14:15:08.701Z,99468.22
2023-03-14T14:17:59.039Z,99466.34
2023-03-14T14:20:42.052Z,99461.91
2023-03-14T14:23:20.964Z,99447.22
2023-03-14T14:25:50.225Z,99441.66
2023-03-14T14:28:33.229Z,99438.56
2023-03-14T14:31:20.849Z,99438.22
2023-03-14T14:33:51.378Z,99441.47
2023-03-14T14:36:32.069Z,99442.41
2023-03-14T14:39:06.554Z,99440.72
2023-03-14T14:41:36.687Z,99442.06
2023-03-14T14:44:05.198Z,99436.38
2023-03-14T14:46:36.580Z,99438.41
2023-03-14T14:49:14.208Z,99437.63
2023-03-14T14:51:49.334Z,99431.28
2023-03-14T14:54:17.838Z,99439.13
2023-03-14T14:56:53.658Z,99435.41
2023-03-14T14:59:29.522Z,99437.25
2023-03-14T15:02:00.069Z,99432.47
2023-03-14T15:04:28.228Z,99437.00
2023-03-14T15:06:55.588Z,99434.84
2023-03-14T15:09:23.170Z,99428.66
2023-03-14T15:11:50.715Z,99428.19
2023-03-14T15:14:18.054Z,99429.38
2023-03-14T15:16:45.431Z,99430.78
2023-03-14T15:19:26.000Z,99434.75
2023-03-14T15:21:54.262Z,99434.06
2023-03-14T15:24:22.532Z,99434.66
2023-03-14T15:26:50.056Z,99426.44
2023-03-14T15:29:17.644Z,99425.47
2023-03-14T15:31:45.297Z,99426.53
2023-03-14T15:34:12.758Z,99425.91
2023-03-14T15:36:41.239Z,99425.31
2023-03-14T15:39:10.876Z,99428.84
2023-03-14T15:41:38.322Z,99418.28
2023-03-14T15:44:05.753Z,99412.97
2023-03-14T15:46:33.021Z,99418.81
2023-03-14T15:49:00.412Z,99414.06
2023-03-14T15:51:27.960Z,99418.31
2023-03-14T15:53:55.392Z,99414.50
2023-03-14T15:56:25.906Z,99419.19
2023-03-14T15:58:53.388Z,99417.06
2023-03-14T16:01:20.745Z,99425.63
2023-03-14T16:03:50.052Z,99408.81
2023-03-14T16:06:17.645Z,99411.56
2023-03-14T16:08:46.349Z,99415.91
2023-03-14T16:11:16.051Z,99420.94
2023-03-14T16:13:43.464Z,99414.19
2023-03-14T16:16:13.235Z,99415.69
2023-03-14T16:18:41.335Z,99422.34
2023-03-14T16:21:14.975Z,99424.91
2023-03-14T16:23:42.756Z,99431.41
2023-03-14T16:26:12.524Z,99428.69
2023-03-14T16:28:40.041Z,99423.63
2023-03-14T16:31:10.121Z,99422.44
2023-03-14T16:33:39.040Z,99422.44
2023-03-14T16:36:11.988Z,99426.00
2023-03-14T16:38:41.554Z,99429.78
2023-03-14T16:41:14.549Z,99432.47
2023-03-14T16:43:42.598Z,99429.00
2023-03-14T16:46:17.098Z,99427.00
2023-03-14T16:48:45.472Z,99428.50
2023-03-14T16:51:14.204Z,99432.78
2023-03-14T16:53:41.743Z,99435.53
2023-03-14T16:56:09.509Z,99433.56
2023-03-14T16:58:37.525Z,99435.06
2023-03-14T17:01:12.766Z,99433.03
2023-03-14T17:03:42.550Z,99436.91
2023-03-14T17:06:14.715Z,99444.66
2023-03-14T17:08:42.533Z,99444.25
2023-03-14T17:11:10.319Z,99442.25
2023-03-14T17:13:39.029Z,99435.47
2023-03-14T17:16:06.918Z,99443.28
2023-03-14T17:18:35.250Z,99441.25
2023-03-14T17:21:03.911Z,99439.69
2023-03-14T17:23:32.845Z,99445.22
2023-03-14T17:26:00.446Z,99439.63
2023-03-14T17:28:28.018Z,99452.41
2023-03-14T17:31:07.417Z,99462.50
2023-03-14T17:33:35.374Z,99462.59
2023-03-14T17:36:03.437Z,99470.78
2023-03-14T17:38:31.502Z,99474.25
2023-03-14T17:40:58.799Z,99474.34
2023-03-14T17:43:26.169Z,99486.50
2023-03-14T17:46:14.300Z,99491.13
2023-03-14T17:48:43.648Z,99489.16
2023-03-14T17:51:12.650Z,99491.53
2023-03-14T17:53:40.129Z,99495.41
2023-03-14T17:56:08.648Z,99504.03
2023-03-14T17:58:37.874Z,99506.72
2023-03-14T18:01:23.767Z,99510.22
2023-03-14T18:03:56.512Z,99519.59
2023-03-14T18:06:24.675Z,99521.88
2023-03-14T18:08:52.223Z,99513.38
2023-03-14T18:11:19.534Z,99516.53
2023-03-14T18:13:46.941Z,99521.16
2023-03-14T18:16:15.207Z,99520.94
2023-03-14T18:18:45.485Z,99527.09
2023-03-14T18:21:14.488Z,99530.19
2023-03-14T18:23:42.091Z,99540.66
2023-03-14T18:26:09.787Z,99535.13
2023-03-14T18:28:37.210Z,99540.88
2023-03-14T18:31:09.782Z,99548.63
2023-03-14T18:33:45.471Z,99542.88
2023-03-14T18:36:13.887Z,99550.97
2023-03-14T18:38:47.836Z,99550.53
2023-03-14T18:41:18.896Z,99548.59
2023-03-14T18:43:46.569Z,99545.09
2023-03-14T18:46:15.599Z,99547.81
2023-03-14T18:48:42.910Z,99547.38
2023-03-14T18:51:12.505Z,99544.22
2023-03-14T18:53:39.982Z,99548.91
2023-03-14T18:56:07.668Z,99542.22
2023-03-14T18:58:35.092Z,99551.19
2023-03-14T19:01:04.609Z,99550.41
2023-03-14T19:03:34.713Z,99550.00
2023-03-14T19:06:05.332Z,99547.97
2023-03-14T19:08:34.867Z,99548.75
2023-03-14T19:11:05.089Z,99550.69
2023-03-14T19:13:33.672Z,99553.81
2023-03-14T19:16:01.608Z,99553.81
2023-03-14T19:18:29.049Z,99563.56
2023-03-14T19:21:08.090Z,99559.25
2023-03-14T19:23:38.622Z,99559.50
2023-03-14T19:26:06.683Z,99568.16
2023-03-14T19:28:34.483Z,99570.56
2023-03-14T19:31:03.405Z,99569.41
2023-03-14T19:33:32.014Z,99575.56
2023-03-14T19:35:59.421Z,99572.16
2023-03-14T19:38:26.808Z,99582.44
2023-03-14T19:40:58.481Z,99590.03
2023-03-14T19:43:26.625Z,99583.66
2023-03-14T19:45:55.497Z,99595.06
2023-03-14T19:48:30.555Z,99595.34
2023-03-14T19:51:01.523Z,99597.91
2023-03-14T19:53:29.300Z,99596.53
2023-03-14T19:55:56.703Z,99601.59
2023-03-14T19:58:24.948Z,99598.06
2023-03-14T20:00:52.343Z,99607.94
2023-03-14T20:03:19.759Z,99610.28
2023-03-14T20:05:47.098Z,99615.13
2023-03-14T20:08:14.473Z,99621.66
2023-03-14T20:10:41.962Z,99630.03
2023-03-14T20:13:20.659Z,99631.19
2023-03-14T20:15:48.602Z,99620.47
2023-03-14T20:18:16.055Z,99623.41
2023-03-14T20:20:43.407Z,99627.19
2023-03-14T20:23:10.853Z,99627.84
2023-03-14T20:25:38.271Z,99626.69
2023-03-14T20:28:05.812Z,99624.75
2023-03-14T20:30:33.848Z,99603.47
2023-03-14T20:33:04.785Z,99602.75
2023-03-14T20:35:32.345Z,99593.09
2023-03-14T20:38:00.612Z,99589.78
2023-03-14T20:40:29.614Z,99600.16
2023-03-14T20:42:56.960Z,99598.16
2023-03-14T20:45:24.331Z,99610.09
2023-03-14T20:47:51.696Z,99605.63
2023-03-14T20:50:19.222Z,99606.44
2023-03-14T20:52:46.708Z,99592.97
2023-03-14T20:55:14.143Z,99598.28
2023-03-14T20:57:42.427Z,99598.09
2023-03-14T21:00:13.843Z,99602.94
2023-03-14T21:05:27.434Z,99598.31
2023-03-14T21:07:55.286Z,99595.47
2023-03-14T21:10:22.820Z,99587.47
2023-03-14T21:12:50.688Z,99592.00
2023-03-14T21:15:18.205Z,99585.31
2023-03-14T21:17:46.626Z,99585.84
2023-03-14T21:20:14.059Z,99581.91
2023-03-14T21:22:41.553Z,99583.13
2023-03-14T21:25:08.853Z,99574.75
2023-03-14T21:27:39.668Z,99579.16
2023-03-14T21:30:09.034Z,99584.78
2023-03-14T21:32:36.423Z,99582.44
2023-03-14T21:35:04.369Z,99594.53
2023-03-14T21:37:31.672Z,99593.38
2023-03-14T21:39:58.987Z,99605.06
2023-03-14T21:42:26.641Z,99598.84
2023-03-14T21:44:54.037Z,99601.34
2023-03-14T21:47:23.451Z,99614.91
2023-03-14T21:49:51.527Z,99616.88
2023-03-14T21:52:18.819Z,99610.03
2023-03-14T21:54:46.149Z,99607.50
2023-03-14T21:57:15.682Z,99614.94
2023-03-14T21:59:45.788Z,99624.44
2023-03-14T22:02:18.601Z,99624.88
2023-03-14T22:04:46.109Z,99615.56
2023-03-14T22:07:18.482Z,99620.31
2023-03-14T22:09:46.465Z,99626.81
2023-03-14T22:12:19.024Z,99640.00
2023-03-14T22:14:47.664Z,99635.41
2023-03-14T22:17:15.500Z,99634.13
2023-03-14T22:19:42.899Z,99632.97
2023-03-14T22:22:10.434Z,99638.50
2023-03-14T22:24:37.735Z,99638.69
2023-03-14T22:27:05.285Z,99640.28
2023-03-14T22:29:34.123Z,99644.94
2023-03-14T22:32:01.623Z,99649.25
2023-03-14T22:34:31.641Z,99648.09
2023-03-14T22:37:01.991Z,99640.47
2023-03-14T22:39:29.649Z,99638.88
2023-03-14T22:41:57.032Z,99637.56
2023-03-14T22:44:24.922Z,99635.88
2023-03-14T22:46:52.258Z,99634.22
2023-03-14T22:49:19.531Z,99631.22
2023-03-14T22:51:46.826Z,99623.69
2023-03-14T22:54:14.017Z,99628.88
2023-03-14T22:56:41.421Z,99630.59
2023-03-14T22:59:09.084Z,99637.66
2023-03-14T23:01:36.425Z,99635.28
2023-03-14T23:04:04.403Z,99635.19
2023-03-14T23:06:31.842Z,99643.16
2023-03-14T23:08:59.075Z,99652.47
2023-03-14T23:11:26.406Z,99656.09
2023-03-14T23:13:53.957Z,99653.53
2023-03-14T23:16:25.233Z,99656.34
2023-03-14T23:18:57.804Z,99652.06
2023-03-14T23:21:25.138Z,99662.38
2023-03-14T23:23:53.220Z,99664.66
2023-03-14T23:26:23.870Z,99661.78
2023-03-14T23:28:54.356Z,99672.91
2023-03-14T23:31:22.468Z,99672.91
2023-03-14T23:33:50.567Z,99672.44
2023-03-14T23:36:18.613Z,99691.75
2023-03-14T23:38:46.557Z,99693.56
2023-03-14T23:41:14.876Z,99700.88
2023-03-14T23:43:44.370Z,99696.78
2023-03-14T23:46:12.105Z,99697.13
2023-03-14T23:48:39.607Z,99712.69
2023-03-14T23:51:09.035Z,99719.56
2023-03-14T23:53:36.311Z,99721.97
2023-03-14T23:56:03.863Z,99717.00
2023-03-14T23:58:35.949Z,99715.88
